sensor_id;sensor_type;location;lat;lon;timestamp;temperature;humidity
40630;DHT22;26329;40.388;-3.710;2022-08-07T00:07:46;30.20;29.70
40630;DHT22;26329;40.388;-3.710;2022-08-07T00:17:48;30.30;29.60
40630;DHT22;26329;40.388;-3.710;2022-08-07T00:27:51;30.20;30.00
40630;DHT22;26329;40.388;-3.710;2022-08-07T00:37:53;30.10;31.20
40630;DHT22;26329;40.388;-3.710;2022-08-07T00:47:55;30.10;32.70
40630;DHT22;26329;40.388;-3.710;2022-08-07T00:57:57;30.00;33.60
40630;DHT22;26329;40.388;-3.710;2022-08-07T01:07:58;29.90;33.70
40630;DHT22;26329;40.388;-3.710;2022-08-07T01:18:01;29.80;34.20
40630;DHT22;26329;40.388;-3.710;2022-08-07T01:28:03;29.70;34.70
40630;DHT22;26329;40.388;-3.710;2022-08-07T01:38:08;29.50;35.00
40630;DHT22;26329;40.388;-3.710;2022-08-07T01:48:13;29.50;35.20
40630;DHT22;26329;40.388;-3.710;2022-08-07T01:58:21;29.30;35.50
40630;DHT22;26329;40.388;-3.710;2022-08-07T02:08:37;29.30;35.60
40630;DHT22;26329;40.388;-3.710;2022-08-07T02:18:48;29.20;35.70
40630;DHT22;26329;40.388;-3.710;2022-08-07T02:28:58;29.00;35.60
40630;DHT22;26329;40.388;-3.710;2022-08-07T02:39:04;28.90;35.50
40630;DHT22;26329;40.388;-3.710;2022-08-07T02:49:08;28.80;35.50
40630;DHT22;26329;40.388;-3.710;2022-08-07T02:59:16;28.70;35.60
40630;DHT22;26329;40.388;-3.710;2022-08-07T03:09:20;28.70;36.10
40630;DHT22;26329;40.388;-3.710;2022-08-07T03:19:24;28.60;36.20
40630;DHT22;26329;40.388;-3.710;2022-08-07T03:29:33;28.40;36.50
40630;DHT22;26329;40.388;-3.710;2022-08-07T03:39:37;28.40;36.80
40630;DHT22;26329;40.388;-3.710;2022-08-07T03:49:41;28.30;38.20
40630;DHT22;26329;40.388;-3.710;2022-08-07T03:59:43;28.20;39.80
40630;DHT22;26329;40.388;-3.710;2022-08-07T04:09:46;28.10;40.60
40630;DHT22;26329;40.388;-3.710;2022-08-07T04:19:48;28.00;40.80
40630;DHT22;26329;40.388;-3.710;2022-08-07T04:29:50;27.90;41.40
40630;DHT22;26329;40.388;-3.710;2022-08-07T04:39:52;27.90;41.50
40630;DHT22;26329;40.388;-3.710;2022-08-07T04:49:58;27.70;41.50
40630;DHT22;26329;40.388;-3.710;2022-08-07T05:00:07;27.50;41.90
40630;DHT22;26329;40.388;-3.710;2022-08-07T05:10:20;27.50;42.80
40630;DHT22;26329;40.388;-3.710;2022-08-07T05:20:26;27.50;42.50
40630;DHT22;26329;40.388;-3.710;2022-08-07T05:30:28;27.30;43.10
40630;DHT22;26329;40.388;-3.710;2022-08-07T05:40:30;27.20;43.80
40630;DHT22;26329;40.388;-3.710;2022-08-07T05:50:32;27.20;44.00
40630;DHT22;26329;40.388;-3.710;2022-08-07T06:00:38;27.10;44.30
40630;DHT22;26329;40.388;-3.710;2022-08-07T06:10:42;27.10;44.30
40630;DHT22;26329;40.388;-3.710;2022-08-07T06:20:45;27.10;44.30
40630;DHT22;26329;40.388;-3.710;2022-08-07T06:30:48;27.00;44.20
40630;DHT22;26329;40.388;-3.710;2022-08-07T06:40:53;27.10;43.70
40630;DHT22;26329;40.388;-3.710;2022-08-07T06:50:59;27.30;42.90
40630;DHT22;26329;40.388;-3.710;2022-08-07T07:01:08;27.80;41.70
40630;DHT22;26329;40.388;-3.710;2022-08-07T07:11:11;28.30;40.10
40630;DHT22;26329;40.388;-3.710;2022-08-07T07:21:22;28.70;39.20
40630;DHT22;26329;40.388;-3.710;2022-08-07T07:31:30;29.00;38.70
40630;DHT22;26329;40.388;-3.710;2022-08-07T07:41:33;29.30;37.50
40630;DHT22;26329;40.388;-3.710;2022-08-07T07:51:37;29.40;37.30
40630;DHT22;26329;40.388;-3.710;2022-08-07T08:01:43;30.00;36.60
40630;DHT22;26329;40.388;-3.710;2022-08-07T08:11:46;30.10;36.30
40630;DHT22;26329;40.388;-3.710;2022-08-07T08:21:49;30.10;35.90
40630;DHT22;26329;40.388;-3.710;2022-08-07T08:32:11;30.40;34.80
40630;DHT22;26329;40.388;-3.710;2022-08-07T08:53:15;30.80;32.30
40630;DHT22;26329;40.388;-3.710;2022-08-07T09:03:23;30.80;31.80
40630;DHT22;26329;40.388;-3.710;2022-08-07T09:13:34;31.20;30.70
40630;DHT22;26329;40.388;-3.710;2022-08-07T11:05:44;32.50;27.10
40630;DHT22;26329;40.388;-3.710;2022-08-07T13:28:38;35.10;22.20
40630;DHT22;26329;40.388;-3.710;2022-08-07T17:52:39;35.10;19.00
40630;DHT22;26329;40.388;-3.710;2022-08-07T18:23:48;34.70;19.40
40630;DHT22;26329;40.388;-3.710;2022-08-07T18:34:16;34.60;19.00
40630;DHT22;26329;40.388;-3.710;2022-08-07T18:54:53;34.40;18.70
40630;DHT22;26329;40.388;-3.710;2022-08-07T19:05:02;34.20;18.60
40630;DHT22;26329;40.388;-3.710;2022-08-07T19:25:45;33.80;18.00
40630;DHT22;26329;40.388;-3.710;2022-08-07T19:35:53;33.60;18.70
40630;DHT22;26329;40.388;-3.710;2022-08-07T19:45:57;33.40;18.90
40630;DHT22;26329;40.388;-3.710;2022-08-07T19:56:03;33.30;19.40
40630;DHT22;26329;40.388;-3.710;2022-08-07T20:06:07;33.10;20.00
40630;DHT22;26329;40.388;-3.710;2022-08-07T20:16:12;32.90;20.10
40630;DHT22;26329;40.388;-3.710;2022-08-07T20:26:17;32.70;20.50
40630;DHT22;26329;40.388;-3.710;2022-08-07T20:36:20;32.40;20.20
40630;DHT22;26329;40.388;-3.710;2022-08-07T20:46:29;32.30;20.80
40630;DHT22;26329;40.388;-3.710;2022-08-07T20:56:36;32.10;21.00
40630;DHT22;26329;40.388;-3.710;2022-08-07T21:06:42;32.10;21.40
40630;DHT22;26329;40.388;-3.710;2022-08-07T21:16:56;31.80;22.30
40630;DHT22;26329;40.388;-3.710;2022-08-07T21:27:11;31.70;22.20
40630;DHT22;26329;40.388;-3.710;2022-08-07T21:37:38;31.70;22.50
40630;DHT22;26329;40.388;-3.710;2022-08-07T21:58:30;31.20;23.30
40630;DHT22;26329;40.388;-3.710;2022-08-07T22:08:41;31.10;23.60
40630;DHT22;26329;40.388;-3.710;2022-08-07T22:28:58;30.60;25.70
40630;DHT22;26329;40.388;-3.710;2022-08-07T22:39:12;30.20;26.40
40630;DHT22;26329;40.388;-3.710;2022-08-07T22:49:53;29.80;26.60
40630;DHT22;26329;40.388;-3.710;2022-08-07T23:10:44;29.20;26.30
40630;DHT22;26329;40.388;-3.710;2022-08-07T23:51:42;28.70;28.00
